Time;durP1;ratioP1;P1;durP2;ratioP2;P2;SDS_P1;SDS_P2;PMS_P1;PMS_P2;Temp;Humidity;BMP_temperature;BMP_pressure;BME280_temperature;BME280_humidity;BME280_pressure;Samples;Min_cycle;Max_cycle;Signal;HPM_P1;HPM_P2
2023/01/08 00:02:56;;;;;;;9.87;8.97;;;;;;;21.56;31.12;95537.38;6173667;28;106182;-80
2023/01/08 00:06:02;;;;;;;9.67;8.77;;;;;;;21.39;30.91;95514.72;6166261;28;102759;-80
2023/01/08 00:09:05;;;;;;;9.27;8.47;;;;;;;21.56;30.89;95537.38;6173975;28;102668;-80
2023/01/08 00:12:09;;;;;;;8.90;8.10;;;;;;;21.27;31.00;95492.25;6174281;28;102915;-80
2023/01/08 00:15:12;;;;;;;9.40;8.60;;;;;;;21.56;31.07;95540.81;6173661;28;103676;-79
2023/01/08 00:18:16;;;;;;;9.73;8.83;;;;;;;21.31;30.79;95488.72;6168781;28;103350;-80
2023/01/08 00:21:19;;;;;;;9.50;8.70;;;;;;;21.30;31.21;95489.81;6173644;28;103338;-80
2023/01/08 00:24:22;;;;;;;10.23;9.33;;;;;;;21.45;30.73;95520.72;6174312;28;103565;-80
2023/01/08 00:27:27;;;;;;;8.90;8.20;;;;;;;21.54;30.81;95529.66;6167002;28;105399;-80
2023/01/08 00:30:30;;;;;;;9.70;8.90;;;;;;;21.56;30.53;95534.69;6173294;28;103427;-80
2023/01/08 00:33:34;;;;;;;9.77;8.97;;;;;;;21.54;30.85;95529.66;6173948;28;103631;-80
2023/01/08 00:36:37;;;;;;;9.57;8.77;;;;;;;21.55;30.55;95530.47;6173085;28;103103;-80
2023/01/08 00:39:40;;;;;;;9.87;8.87;;;;;;;21.53;30.67;95528.09;6166193;28;103206;-80
2023/01/08 00:42:44;;;;;;;9.47;8.67;;;;;;;21.54;30.95;95529.66;6174783;28;103500;-80
2023/01/08 00:45:50;;;;;;;9.37;8.57;;;;;;;21.54;30.82;95536.88;6173915;28;105308;-80
2023/01/08 00:48:53;;;;;;;10.23;9.33;;;;;;;21.54;30.66;95542.19;6173722;28;102568;-80
2023/01/08 00:51:57;;;;;;;8.97;8.23;;;;;;;21.29;31.20;95496.22;6166942;28;102722;-80
2023/01/08 00:55:00;;;;;;;9.27;8.50;;;;;;;21.14;30.95;95464.50;6173377;28;102799;-80
2023/01/08 00:58:04;;;;;;;9.80;8.90;;;;;;;21.54;30.99;95528.88;6174109;28;103550;-79
2023/01/08 01:01:11;;;;;;;8.20;7.60;;;;;;;21.53;30.57;95528.09;6169786;28;105474;-79
2023/01/08 01:04:14;;;;;;;9.00;8.30;;;;;;;21.54;30.98;95536.88;6168761;28;104935;-80
2023/01/08 01:07:18;;;;;;;8.60;7.90;;;;;;;21.28;30.85;95505.28;6173372;28;102952;-80
2023/01/08 01:10:21;;;;;;;8.73;7.93;;;;;;;21.52;30.73;95542.47;6173391;28;104346;-80
2023/01/08 01:13:26;;;;;;;9.00;8.30;;;;;;;21.51;30.93;95541.69;6166751;28;103378;-79
2023/01/08 01:16:29;;;;;;;10.10;9.23;;;;;;;21.52;30.74;95534.50;6173723;28;103050;-80
2023/01/08 01:19:32;;;;;;;10.00;9.20;;;;;;;21.51;30.48;95546.22;6173073;28;102850;-79
2023/01/08 01:22:36;;;;;;;9.40;8.60;;;;;;;21.33;30.49;95505.19;6172767;28;103379;-80
2023/01/08 01:25:39;;;;;;;9.90;9.00;;;;;;;21.51;30.36;95535.56;6165185;28;104473;-79
2023/01/08 01:28:46;;;;;;;9.90;9.10;;;;;;;21.49;30.63;95535.84;6156105;28;103302;-80
2023/01/08 01:31:49;;;;;;;9.00;8.20;;;;;;;21.15;30.43;95472.19;6172769;28;103590;-80
2023/01/08 01:34:55;;;;;;;9.70;8.80;;;;;;;21.31;30.98;95507.34;6152048;28;106607;-79
2023/01/08 01:37:58;;;;;;;9.50;8.70;;;;;;;21.40;30.87;95516.28;6169060;28;103425;-79
2023/01/08 01:41:01;;;;;;;9.00;8.30;;;;;;;21.49;30.31;95538.50;6173359;28;105267;-80
2023/01/08 01:44:34;;;;;;;9.50;8.70;;;;;;;21.48;30.44;95518.28;6172345;28;103199;-80
2023/01/08 01:47:40;;;;;;;9.43;8.53;;;;;;;21.33;30.25;95494.53;6162681;28;103026;-80
2023/01/08 01:50:48;;;;;;;9.90;9.10;;;;;;;21.46;30.32;95517.78;6172711;28;103067;-80
2023/01/08 01:53:51;;;;;;;9.87;8.97;;;;;;;21.49;30.66;95525.19;6172069;28;104730;-79
2023/01/08 01:56:55;;;;;;;9.10;8.40;;;;;;;21.50;30.46;95525.97;6173311;28;104835;-79
2023/01/08 02:00:02;;;;;;;10.20;9.30;;;;;;;21.42;30.36;95511.47;6163715;28;103270;-80
2023/01/08 02:03:09;;;;;;;9.60;8.70;;;;;;;21.38;30.48;95505.13;6171125;28;105141;-80
2023/01/08 02:06:22;;;;;;;10.00;9.10;;;;;;;21.49;30.11;95519.06;6170427;28;103293;-79
2023/01/08 02:09:40;;;;;;;9.33;8.53;;;;;;;21.32;30.25;95486.84;6166596;28;103119;-80
2023/01/08 02:12:48;;;;;;;10.17;9.27;;;;;;;21.50;30.19;95510.78;6169087;28;103062;-81
2023/01/08 02:15:57;;;;;;;9.83;9.03;;;;;;;21.36;29.89;95486.00;6169614;28;105276;-80
2023/01/08 02:19:07;;;;;;;9.83;9.03;;;;;;;21.49;30.26;95500.44;6170084;28;103244;-80
2023/01/08 02:22:24;;;;;;;10.03;9.13;;;;;;;21.43;30.35;95493.63;6162047;28;107435;-80
2023/01/08 02:25:40;;;;;;;10.17;9.27;;;;;;;21.18;30.27;95453.00;6168910;28;103816;-80
2023/01/08 02:28:49;;;;;;;10.07;9.27;;;;;;;21.51;30.08;95498.28;6168852;28;103593;-79
2023/01/08 02:31:53;;;;;;;9.97;9.10;;;;;;;21.30;29.93;95460.53;6164343;28;103298;-80
2023/01/08 02:34:56;;;;;;;10.17;9.37;;;;;;;21.22;30.29;95447.88;6163893;28;103476;-81
2023/01/08 02:37:59;;;;;;;11.20;10.30;;;;;;;21.39;30.27;95474.78;6167638;28;103436;-80
2023/01/08 02:41:08;;;;;;;10.97;10.07;;;;;;;21.51;30.41;95488.44;6170287;28;103190;-80
2023/01/08 02:44:20;;;;;;;9.93;9.20;;;;;;;21.52;30.34;95483.91;6163079;28;103325;-80
2023/01/08 02:47:29;;;;;;;11.00;10.10;;;;;;;21.31;30.27;95448.00;6153057;28;106446;-78
2023/01/08 02:50:38;;;;;;;11.00;10.00;;;;;;;21.44;30.10;95472.03;6169027;28;103101;-78
2023/01/08 02:53:45;;;;;;;10.27;9.37;;;;;;;21.50;30.08;95481.50;6171369;28;102917;-78
2023/01/08 02:56:58;;;;;;;10.87;9.87;;;;;;;21.50;30.08;95478.84;6161684;28;103237;-78
2023/01/08 03:00:03;;;;;;;10.80;9.80;;;;;;;21.51;29.87;95477.00;6174246;28;104327;-78
2023/01/08 03:03:11;;;;;;;11.90;10.87;;;;;;;21.44;29.64;95471.22;6175201;28;103153;-78
2023/01/08 03:06:19;;;;;;;11.00;9.93;;;;;;;21.50;30.07;95486.81;6171140;28;103961;-79
2023/01/08 03:09:23;;;;;;;10.90;10.00;;;;;;;21.27;30.12;95461.09;6172993;28;102610;-78
2023/01/08 03:12:35;;;;;;;9.90;9.00;;;;;;;21.50;30.31;95497.47;6176166;28;104054;-78
2023/01/08 03:15:46;;;;;;;10.97;9.97;;;;;;;21.50;29.95;95497.47;6174825;28;103453;-78
2023/01/08 03:18:57;;;;;;;11.93;10.83;;;;;;;21.27;29.96;95452.34;6166021;28;104011;-79
2023/01/08 03:22:02;;;;;;;11.50;10.40;;;;;;;21.48;29.77;95496.19;6174694;28;102900;-77
2023/01/08 03:25:07;;;;;;;10.80;9.80;;;;;;;21.48;29.67;95501.50;6174564;28;103070;-78
2023/01/08 03:28:15;;;;;;;10.70;9.80;;;;;;;21.13;30.04;95442.41;6174844;28;105912;-78
2023/01/08 03:31:23;;;;;;;10.97;10.07;;;;;;;21.34;29.66;95472.19;6167963;28;104260;-78
2023/01/08 03:34:28;;;;;;;10.93;9.93;;;;;;;21.22;29.71;95455.88;6174132;28;103479;-78
2023/01/08 03:37:35;;;;;;;11.57;10.47;;;;;;;21.46;29.60;95488.50;6174305;28;103635;-79
2023/01/08 03:40:43;;;;;;;10.40;9.50;;;;;;;21.29;29.88;95458.94;6167900;28;106363;-79
2023/01/08 03:43:46;;;;;;;10.63;9.73;;;;;;;21.41;29.70;95477.94;6174285;28;104165;-79
2023/01/08 03:46:54;;;;;;;11.07;10.07;;;;;;;21.25;29.78;95444.66;6174516;28;102788;-78
2023/01/08 03:50:01;;;;;;;11.53;10.57;;;;;;;21.47;29.75;95475.97;6175384;28;102951;-79
2023/01/08 03:53:04;;;;;;;11.07;10.07;;;;;;;21.46;29.93;95480.50;6166476;28;103483;-79
2023/01/08 03:56:08;;;;;;;11.30;10.40;;;;;;;21.46;29.67;95475.19;6174128;28;103114;-78
2023/01/08 03:59:12;;;;;;;13.23;10.80;;;;;;;21.23;29.90;95443.34;6174274;28;105665;-79
2023/01/08 04:02:17;;;;;;;10.47;9.57;;;;;;;21.47;29.70;95487.41;6173678;28;103071;-79
2023/01/08 04:05:20;;;;;;;10.63;9.73;;;;;;;21.30;29.39;95457.88;6164750;28;102810;-78
2023/01/08 04:08:23;;;;;;;10.90;9.90;;;;;;;21.47;30.01;95487.41;6172892;28;103143;-78
2023/01/08 04:11:26;;;;;;;11.27;9.93;;;;;;;21.46;29.61;95490.38;6172273;28;102563;-79
2023/01/08 04:14:29;;;;;;;11.57;10.57;;;;;;;21.23;29.78;95459.31;6169516;28;104084;-79
2023/01/08 04:17:34;;;;;;;11.50;10.50;;;;;;;21.46;29.43;95491.16;6173242;28;106074;-79
2023/01/08 04:20:38;;;;;;;11.40;10.40;;;;;;;21.23;29.72;95454.00;6173284;28;102633;-79
2023/01/08 04:23:41;;;;;;;11.33;10.43;;;;;;;20.82;29.88;95396.81;6174168;28;102823;-79
2023/01/08 04:26:44;;;;;;;11.90;10.90;;;;;;;21.40;29.61;95486.22;6167607;28;102917;-79
2023/01/08 04:29:48;;;;;;;12.10;11.00;;;;;;;21.40;29.59;95487.00;6173856;28;103387;-78
2023/01/08 04:32:54;;;;;;;11.80;10.80;;;;;;;21.45;29.42;95497.56;6173663;28;103571;-79
2023/01/08 04:35:57;;;;;;;13.10;12.00;;;;;;;21.43;29.58;95497.06;6173101;28;103085;-79
2023/01/08 04:39:02;;;;;;;12.17;11.07;;;;;;;21.45;29.75;95496.78;6166409;28;103081;-79
2023/01/08 04:42:06;;;;;;;12.80;11.70;;;;;;;21.44;29.39;95493.31;6172487;28;103071;-79
2023/01/08 04:45:10;;;;;;;12.30;11.30;;;;;;;21.34;29.47;95474.03;6172902;28;103044;-79
2023/01/08 04:48:15;;;;;;;12.40;11.40;;;;;;;21.27;29.33;95474.41;6170515;28;102873;-79
2023/01/08 04:51:18;;;;;;;12.37;11.33;;;;;;;21.44;29.28;95488.00;6170704;28;104747;-78
2023/01/08 04:54:22;;;;;;;13.20;12.07;;;;;;;21.44;29.35;95495.97;6173819;28;104056;-79
2023/01/08 04:57:25;;;;;;;12.30;11.30;;;;;;;21.27;28.90;95470.97;6172063;28;103008;-79
2023/01/08 05:00:28;;;;;;;12.10;11.10;;;;;;;21.37;29.24;95481.47;6165699;28;103800;-78
2023/01/08 05:03:33;;;;;;;13.33;12.13;;;;;;;21.44;29.44;95493.31;6172568;28;106043;-79
2023/01/08 05:06:36;;;;;;;12.13;11.00;;;;;;;21.43;29.25;95499.72;6171659;28;102903;-79
2023/01/08 05:09:39;;;;;;;13.00;11.90;;;;;;;21.07;29.33;95446.25;6172446;28;107916;-78
2023/01/08 05:12:43;;;;;;;13.10;12.00;;;;;;;21.38;29.25;95493.69;6163800;28;104317;-78
2023/01/08 05:15:46;;;;;;;12.97;11.77;;;;;;;21.44;29.05;95501.31;6171576;28;103133;-79
2023/01/08 05:18:51;;;;;;;13.37;12.30;;;;;;;21.42;29.22;95503.47;6172127;28;104249;-79
2023/01/08 05:21:54;;;;;;;12.53;11.53;;;;;;;21.42;29.06;95506.13;6170531;28;104041;-78
2023/01/08 05:24:57;;;;;;;15.07;13.77;;;;;;;20.84;29.35;95418.63;6164716;28;103043;-78
2023/01/08 05:28:00;;;;;;;16.10;14.70;;;;;;;21.31;29.23;95493.25;6171108;28;103278;-79
2023/01/08 05:31:07;;;;;;;15.10;13.70;;;;;;;21.42;29.12;95505.34;6171928;28;102917;-78
2023/01/08 05:34:11;;;;;;;14.87;13.57;;;;;;;21.36;29.25;95501.97;6163960;28;102991;-79
2023/01/08 05:37:15;;;;;;;14.90;13.67;;;;;;;21.40;29.17;95510.97;6171637;28;103016;-78
2023/01/08 05:40:18;;;;;;;16.20;14.70;;;;;;;21.41;29.39;95514.41;6170745;28;103253;-78
2023/01/08 05:43:21;;;;;;;15.30;13.93;;;;;;;21.39;29.26;95512.03;6171205;28;107122;-79
2023/01/08 05:46:25;;;;;;;15.43;14.03;;;;;;;21.27;28.78;95494.94;6163942;28;105302;-78
2023/01/08 05:49:31;;;;;;;16.27;14.70;;;;;;;21.38;29.23;95510.47;6170668;28;102844;-79
2023/01/08 05:52:35;;;;;;;16.97;15.37;;;;;;;21.32;29.24;95497.50;6171206;28;104387;-79
2023/01/08 05:55:39;;;;;;;15.50;14.10;;;;;;;21.39;29.31;95508.59;6170953;28;104634;-79
2023/01/08 05:58:43;;;;;;;16.67;15.20;;;;;;;21.40;29.33;95508.31;6162285;28;105062;-78
2023/01/08 06:01:46;;;;;;;16.50;14.97;;;;;;;21.42;29.21;95502.69;6170537;28;102794;-78
2023/01/08 06:04:51;;;;;;;16.60;15.00;;;;;;;21.41;28.64;95501.91;6170069;28;102620;-78
2023/01/08 06:07:54;;;;;;;16.37;14.97;;;;;;;21.41;28.90;95509.88;6165791;28;104533;-79
2023/01/08 06:11:00;;;;;;;17.17;15.37;;;;;;;21.41;29.16;95515.19;6165867;28;102916;-78
2023/01/08 06:14:03;;;;;;;17.50;15.90;;;;;;;21.42;28.99;95516.78;6168974;28;103544;-79
2023/01/08 06:17:07;;;;;;;17.47;15.77;;;;;;;21.41;29.13;95512.53;6169504;28;104192;-79
2023/01/08 06:20:12;;;;;;;16.47;15.07;;;;;;;21.43;29.15;95512.25;6163266;28;104676;-79
2023/01/08 06:23:15;;;;;;;19.70;17.80;;;;;;;21.44;29.07;95513.84;6169861;28;104246;-79
2023/01/08 06:26:18;;;;;;;18.83;17.10;;;;;;;21.43;28.86;95518.38;6169739;28;105977;-79
2023/01/08 06:29:21;;;;;;;18.93;17.13;;;;;;;21.28;28.69;95489.31;6170216;28;102953;-79
2023/01/08 06:32:25;;;;;;;19.20;17.40;;;;;;;21.46;29.19;95522.31;6162363;28;105081;-79
2023/01/08 06:35:30;;;;;;;19.00;17.20;;;;;;;21.36;28.60;95515.28;6169379;28;106004;-79
2023/01/08 06:38:33;;;;;;;19.10;17.27;;;;;;;21.10;28.91;95477.59;6171542;28;106433;-79
2023/01/08 06:41:37;;;;;;;19.47;17.67;;;;;;;21.45;28.69;95542.03;6166995;28;103076;-80
2023/01/08 06:44:40;;;;;;;20.60;18.47;;;;;;;21.32;28.97;95516.94;6165487;28;103478;-79
2023/01/08 06:47:43;;;;;;;18.93;17.23;;;;;;;21.46;28.81;95538.28;6170276;28;103068;-79
2023/01/08 06:50:48;;;;;;;19.83;17.93;;;;;;;21.15;28.64;95493.47;6170911;28;104036;-79
2023/01/08 06:53:51;;;;;;;19.30;17.40;;;;;;;21.36;28.58;95525.94;6163669;28;105117;-79
2023/01/08 06:56:54;;;;;;;20.40;18.40;;;;;;;21.46;28.54;95544.41;6169583;28;102996;-79
2023/01/08 06:59:58;;;;;;;19.30;17.40;;;;;;;21.23;29.01;95516.00;6170618;28;104639;-79
2023/01/08 07:03:01;;;;;;;19.63;17.83;;;;;;;21.54;28.90;95545.66;6171276;28;103259;-78
2023/01/08 07:06:07;;;;;;;20.53;18.63;;;;;;;21.87;28.34;95549.16;6162852;28;104016;-78
2023/01/08 07:09:12;;;;;;;19.37;17.50;;;;;;;22.55;27.32;95545.81;6172261;28;104378;-78
2023/01/08 07:12:15;;;;;;;19.70;17.73;;;;;;;22.31;27.24;95513.19;6171844;28;103678;-79
2023/01/08 07:15:18;;;;;;;19.53;17.50;;;;;;;22.50;27.13;95551.22;6169721;28;103108;-79
2023/01/08 07:18:24;;;;;;;19.60;17.80;;;;;;;22.22;27.29;95497.09;6163118;28;104173;-79
2023/01/08 07:21:31;;;;;;;19.37;17.57;;;;;;;22.63;27.38;95561.16;6171454;28;103429;-79
2023/01/08 07:24:34;;;;;;;18.77;16.97;;;;;;;22.72;27.24;95557.81;6169970;28;102787;-79
2023/01/08 07:27:38;;;;;;;19.47;17.67;;;;;;;22.50;27.40;95556.56;6166310;28;104376;-78
2023/01/08 07:30:42;;;;;;;18.50;16.80;;;;;;;22.36;28.12;95545.09;6169365;28;103083;-78
2023/01/08 07:33:45;;;;;;;19.43;17.60;;;;;;;22.41;27.61;95553.00;6171021;28;102813;-78
2023/01/08 07:36:49;;;;;;;17.40;15.80;;;;;;;22.42;27.94;95559.91;6172955;28;103694;-78
2023/01/08 07:39:53;;;;;;;19.40;17.53;;;;;;;22.42;28.42;95566.03;6148440;28;103578;-78
2023/01/08 07:42:59;;;;;;;18.43;16.63;;;;;;;22.45;28.38;95567.31;6172274;28;102726;-78
2023/01/08 07:46:03;;;;;;;18.33;16.60;;;;;;;22.46;28.21;95571.56;6174603;28;103100;-78
2023/01/08 07:49:07;;;;;;;17.93;16.23;;;;;;;22.44;28.28;95562.28;6177021;28;104103;-78
2023/01/08 07:52:11;;;;;;;18.63;16.50;;;;;;;22.35;28.25;95548.88;6172365;28;102687;-80
2023/01/08 07:55:15;;;;;;;18.47;16.57;;;;;;;22.46;28.29;95565.44;6178146;28;105525;-78
2023/01/08 07:58:18;;;;;;;17.53;15.87;;;;;;;22.16;28.46;95530.25;6179565;28;102636;-78
2023/01/08 08:01:24;;;;;;;18.60;16.83;;;;;;;22.49;28.25;95570.19;6174528;28;103678;-78
2023/01/08 08:04:28;;;;;;;19.40;17.50;;;;;;;22.48;28.21;95564.06;6171321;28;103083;-78
2023/01/08 08:07:33;;;;;;;17.23;15.73;;;;;;;22.47;28.38;95567.81;6178051;28;102732;-78
2023/01/08 08:10:36;;;;;;;16.87;15.27;;;;;;;22.33;28.38;95551.78;6177210;28;102900;-79
2023/01/08 08:13:43;;;;;;;16.97;15.17;;;;;;;22.45;28.20;95570.00;6171591;28;104131;-78
2023/01/08 08:16:47;;;;;;;17.67;15.90;;;;;;;22.37;28.80;95557.34;6175920;28;104371;-79
2023/01/08 08:19:50;;;;;;;16.23;14.50;;;;;;;22.49;28.66;95572.84;6177260;28;102668;-78
2023/01/08 08:23:01;;;;;;;17.47;15.70;;;;;;;22.47;28.66;95570.50;6176492;28;103014;-78
2023/01/08 08:26:06;;;;;;;16.70;15.10;;;;;;;22.47;28.42;95573.16;6171044;28;106521;-79
2023/01/08 08:29:11;;;;;;;15.60;14.20;;;;;;;22.45;28.63;95569.19;6177150;28;103253;-78
2023/01/08 08:32:14;;;;;;;17.20;15.60;;;;;;;22.49;28.34;95573.66;6177726;28;103460;-79
2023/01/08 08:35:17;;;;;;;14.60;13.30;;;;;;;22.33;29.10;95549.13;6176015;28;106396;-78
2023/01/08 08:38:23;;;;;;;16.60;14.77;;;;;;;22.49;28.58;95573.66;6174608;28;107105;-78
2023/01/08 08:41:26;;;;;;;16.90;15.33;;;;;;;22.49;28.57;95573.66;6176459;28;103507;-78
2023/01/08 08:44:30;;;;;;;17.00;15.40;;;;;;;22.40;28.50;95559.44;6173830;28;102582;-79
2023/01/08 08:47:33;;;;;;;15.87;14.47;;;;;;;22.49;28.56;95570.97;6167164;28;102974;-78
2023/01/08 08:50:37;;;;;;;14.40;13.10;;;;;;;22.26;28.65;95534.63;6173517;28;103158;-78
2023/01/08 08:53:43;;;;;;;16.07;14.57;;;;;;;22.50;28.95;95567.22;6175248;28;104920;-78
2023/01/08 08:56:48;;;;;;;16.57;15.07;;;;;;;22.38;28.97;95561.59;6177467;28;104085;-79
2023/01/08 08:59:51;;;;;;;17.10;15.40;;;;;;;22.21;29.39;95564.84;6174879;28;102714;-84
2023/01/08 09:03:03;;;;;;;21.50;19.40;;;;;;;22.11;29.58;95565.78;6174867;28;104302;-85
2023/01/08 09:06:12;;;;;;;24.47;22.20;;;;;;;21.73;28.23;95566.94;6179563;28;102662;-85
2023/01/08 09:09:19;;;;;;;20.83;18.80;;;;;;;21.76;28.59;95571.66;6175817;28;102621;-86
2023/01/08 09:12:23;;;;;;;19.60;17.70;;;;;;;21.76;28.57;95547.69;6175161;28;103193;-84
2023/01/08 09:15:26;;;;;;;17.93;16.03;;;;;;;21.75;29.14;95540.78;6178018;28;104583;-87
2023/01/08 09:18:29;;;;;;;17.23;15.73;;;;;;;21.75;29.14;95532.78;6177193;28;103171;-83
2023/01/08 09:21:34;;;;;;;17.07;15.37;;;;;;;21.87;29.03;95537.69;6169537;28;103327;-85
2023/01/08 09:24:38;;;;;;;15.40;13.87;;;;;;;21.76;29.80;95516.50;6175708;28;102922;-84
2023/01/08 09:27:42;;;;;;;17.17;14.90;;;;;;;21.82;29.59;95519.91;6177234;28;102643;-84
2023/01/08 09:30:45;;;;;;;17.00;14.07;;;;;;;22.04;29.61;95529.94;6175842;28;106071;-85
2023/01/08 09:33:48;;;;;;;16.07;14.50;;;;;;;22.05;29.93;95515.53;6169102;28;102861;-83
2023/01/08 09:36:52;;;;;;;16.60;13.27;;;;;;;22.22;30.14;95533.63;6174909;28;103133;-84
2023/01/08 09:39:56;;;;;;;14.00;12.50;;;;;;;22.23;30.30;95529.88;6175438;28;106531;-83
2023/01/08 09:43:05;;;;;;;13.47;12.03;;;;;;;22.23;31.09;95522.66;6175962;28;102651;-83
2023/01/08 09:46:11;;;;;;;14.03;12.43;;;;;;;22.20;31.26;95495.81;6168377;28;105560;-84
2023/01/08 09:49:21;;;;;;;13.30;11.70;;;;;;;22.33;31.79;95506.47;6174394;28;103559;-84
2023/01/08 09:52:24;;;;;;;14.20;12.83;;;;;;;22.32;32.01;95504.09;6182290;28;103577;-84
2023/01/08 09:55:33;;;;;;;14.50;12.50;;;;;;;22.40;31.94;95500.75;6175853;28;102658;-84
2023/01/08 09:58:39;;;;;;;13.30;11.97;;;;;;;22.41;32.96;95494.34;6183689;28;102505;-83
2023/01/08 10:01:44;;;;;;;16.13;11.20;;;;;;;22.40;33.04;95479.44;6183381;28;105368;-84
2023/01/08 10:04:53;;;;;;;15.00;11.50;;;;;;;22.44;32.83;95477.75;6183371;28;105145;-83
2023/01/08 10:07:56;;;;;;;12.50;11.30;;;;;;;22.46;33.29;95486.22;6171831;28;104522;-83
2023/01/08 10:11:01;;;;;;;12.67;11.33;;;;;;;22.55;34.04;95486.34;6171977;28;104327;-83
2023/01/08 10:14:15;;;;;;;13.83;11.03;;;;;;;21.33;33.23;95302.88;6176593;28;104577;-85
2023/01/08 10:17:28;;;;;;;12.40;11.20;;;;;;;22.38;33.23;95462.94;6171509;28;103167;-83
2023/01/08 10:20:32;;;;;;;12.60;11.10;;;;;;;22.33;33.22;95457.69;6169246;28;103383;-84
2023/01/08 10:23:36;;;;;;;12.33;11.03;;;;;;;22.38;33.51;95471.72;6175658;28;106627;-83
2023/01/08 10:26:41;;;;;;;16.33;12.50;;;;;;;22.34;32.38;95461.94;6176036;28;102844;-81
2023/01/08 10:29:45;;;;;;;21.30;13.37;;;;;;;22.32;32.38;95456.09;6166803;28;104130;-85
2023/01/08 10:32:52;;;;;;;16.47;13.90;;;;;;;22.31;32.83;95450.00;6169017;28;102950;-84
2023/01/08 10:36:00;;;;;;;17.77;11.63;;;;;;;22.10;33.69;95409.63;6173510;28;103033;-85
2023/01/08 10:39:04;;;;;;;21.10;15.87;;;;;;;22.18;33.30;95440.13;6173637;28;103523;-83
2023/01/08 10:42:10;;;;;;;24.00;21.10;;;;;;;21.02;31.71;95418.91;6164924;28;102677;-81
2023/01/08 10:45:20;;;;;;;21.47;19.33;;;;;;;20.41;31.13;95417.88;6149559;28;102684;-82
2023/01/08 10:48:30;;;;;;;22.37;19.17;;;;;;;20.57;30.95;95382.03;6171970;28;104284;-85
2023/01/08 10:51:34;;;;;;;21.80;17.70;;;;;;;21.17;30.77;95416.00;6166218;28;104151;-80
2023/01/08 10:54:38;;;;;;;19.53;16.93;;;;;;;21.41;30.71;95410.59;6163154;28;103413;-83
2023/01/08 10:57:54;;;;;;;19.07;17.27;;;;;;;21.36;30.59;95386.72;6157951;28;105988;-83
2023/01/08 11:01:10;;;;;;;28.00;18.60;;;;;;;21.55;30.92;95406.09;6160538;28;103072;-82
2023/01/08 11:04:21;;;;;;;20.00;17.73;;;;;;;21.55;30.95;95407.97;6145335;28;104040;-82
2023/01/08 11:07:25;;;;;;;21.10;19.03;;;;;;;21.48;30.57;95381.69;6156431;28;103594;-84
2023/01/08 11:10:29;;;;;;;19.23;17.20;;;;;;;21.68;30.47;95400.00;6150589;28;103060;-79
2023/01/08 11:13:34;;;;;;;19.07;17.00;;;;;;;21.64;30.51;95379.56;6149554;28;102707;-84
2023/01/08 11:16:41;;;;;;;17.73;15.97;;;;;;;21.66;30.41;95378.16;6149166;28;103417;-82
2023/01/08 11:19:44;;;;;;;19.13;17.30;;;;;;;21.81;29.96;95391.22;6167492;28;103267;-81
2023/01/08 11:22:49;;;;;;;18.60;16.80;;;;;;;21.78;30.28;95383.03;6178048;28;102762;-82
2023/01/08 11:26:02;;;;;;;17.43;15.90;;;;;;;21.78;30.02;95386.47;6157693;28;103094;-82
2023/01/08 11:29:14;;;;;;;17.47;15.97;;;;;;;21.73;30.20;95389.25;6155309;28;102815;-82
2023/01/08 11:32:29;;;;;;;17.27;15.47;;;;;;;21.43;29.96;95336.53;6176413;28;102819;-83
2023/01/08 11:35:37;;;;;;;15.47;14.07;;;;;;;21.54;28.50;95337.94;6177025;28;103891;-82
2023/01/08 11:38:41;;;;;;;14.63;13.13;;;;;;;21.98;29.57;95371.22;6157499;28;102751;-81
2023/01/08 11:42:14;;;;;;;15.40;14.00;;;;;;;22.13;31.36;95372.78;6184619;28;105278;-81
2023/01/08 11:45:28;;;;;;;15.27;13.67;;;;;;;22.03;29.75;95371.94;6171606;28;102834;-82
2023/01/08 11:48:57;;;;;;;15.03;13.57;;;;;;;21.78;29.63;95332.41;6168386;28;103300;-82
2023/01/08 11:52:22;;;;;;;14.87;13.47;;;;;;;22.15;32.06;95362.63;6175998;28;103027;-83
2023/01/08 11:55:49;;;;;;;13.43;12.20;;;;;;;22.10;32.50;95337.66;6174040;28;102584;-81
2023/01/08 11:59:11;;;;;;;14.20;12.70;;;;;;;22.27;32.85;95357.56;6170765;28;104118;-83
2023/01/08 12:02:22;;;;;;;13.87;12.57;;;;;;;22.28;32.85;95356.50;6155456;28;102605;-83
2023/01/08 12:05:29;;;;;;;14.30;12.90;;;;;;;22.17;33.84;95339.13;6177821;28;103838;-80
2023/01/08 12:08:40;;;;;;;12.90;11.70;;;;;;;22.34;33.80;95323.28;6188091;28;102537;-79
2023/01/08 12:11:52;;;;;;;12.57;11.40;;;;;;;22.58;33.44;95342.53;6186608;28;105196;-79
2023/01/08 12:15:10;;;;;;;12.73;11.63;;;;;;;22.38;33.24;95300.28;6170758;28;102794;-78
2023/01/08 12:18:49;;;;;;;12.77;11.50;;;;;;;22.60;33.49;95326.22;6185570;28;102703;-78
2023/01/08 12:22:18;;;;;;;11.50;10.40;;;;;;;22.69;33.35;95332.44;6178798;28;104540;-80
2023/01/08 12:25:32;;;;;;;12.37;11.03;;;;;;;22.74;33.51;95328.84;6163543;28;102740;-78
2023/01/08 12:29:14;;;;;;;11.93;10.83;;;;;;;22.75;33.45;95323.19;6177111;28;102271;-80
2023/01/08 12:32:29;;;;;;;10.90;9.80;;;;;;;22.56;33.58;95287.88;6148100;28;104453;-81
2023/01/08 12:35:38;;;;;;;10.87;9.87;;;;;;;22.81;33.41;95321.19;6143600;28;103777;-79
2023/01/08 12:38:45;;;;;;;10.87;9.77;;;;;;;22.79;34.05;95315.38;6168574;28;104214;-81
2023/01/08 12:41:51;;;;;;;11.50;10.50;;;;;;;22.73;33.92;95311.25;6171123;28;105111;-79
2023/01/08 12:44:57;;;;;;;11.27;10.17;;;;;;;22.68;34.34;95312.97;6139801;28;105880;-78
2023/01/08 12:48:05;;;;;;;11.40;10.30;;;;;;;22.64;34.33;95306.63;6163127;28;105321;-79
2023/01/08 12:51:18;;;;;;;11.33;10.13;;;;;;;22.62;34.29;95308.03;6171570;28;102877;-79
2023/01/08 12:54:30;;;;;;;11.17;10.23;;;;;;;22.60;34.16;95307.53;6159473;28;103605;-79
2023/01/08 12:57:40;;;;;;;10.37;9.40;;;;;;;22.40;34.31;95274.09;6162419;28;103418;-77
2023/01/08 13:00:51;;;;;;;11.80;10.10;;;;;;;22.56;34.46;95302.00;6160603;28;103793;-77
2023/01/08 13:03:57;;;;;;;11.20;10.10;;;;;;;22.57;34.57;95289.50;6165602;28;106567;-78
2023/01/08 13:07:05;;;;;;;9.80;9.00;;;;;;;22.39;34.45;95267.19;6159597;28;103016;-78
2023/01/08 13:10:26;;;;;;;10.07;9.17;;;;;;;22.54;34.31;95288.19;6163649;28;103169;-79
2023/01/08 13:13:31;;;;;;;11.70;9.80;;;;;;;22.51;34.54;95285.31;6167587;28;103291;-79
2023/01/08 13:16:39;;;;;;;11.00;10.00;;;;;;;22.47;34.79;95279.81;6167658;28;106568;-78
2023/01/08 13:19:45;;;;;;;10.27;9.37;;;;;;;22.25;34.77;95247.78;6155670;28;103540;-79
2023/01/08 13:22:54;;;;;;;10.30;9.40;;;;;;;22.19;34.73;95249.78;6146743;28;103243;-79
2023/01/08 13:26:01;;;;;;;10.60;9.50;;;;;;;22.41;35.13;95286.34;6164678;28;103433;-79
2023/01/08 13:29:26;;;;;;;10.30;9.30;;;;;;;22.40;35.15;95279.44;6150003;28;106328;-79
2023/01/08 13:32:44;;;;;;;10.50;9.40;;;;;;;22.18;35.46;95253.56;6159515;28;103795;-79
2023/01/08 13:35:47;;;;;;;10.37;9.50;;;;;;;22.05;35.42;95225.06;6142625;28;104736;-79
2023/01/08 13:39:19;;;;;;;10.63;9.60;;;;;;;22.38;35.57;95286.97;6152298;28;102887;-78
2023/01/08 13:42:27;;;;;;;11.10;10.10;;;;;;;22.34;35.78;95281.41;6163918;28;103519;-78
2023/01/08 13:45:31;;;;;;;10.80;9.90;;;;;;;22.13;35.79;95253.66;6143998;28;103009;-78
2023/01/08 13:48:37;;;;;;;11.30;10.20;;;;;;;22.35;35.75;95283.03;6156664;28;102812;-78
2023/01/08 13:51:43;;;;;;;10.90;9.93;;;;;;;22.35;35.94;95282.22;6166197;28;103592;-79
2023/01/08 13:54:50;;;;;;;10.63;9.73;;;;;;;22.33;35.50;95279.06;6156027;28;103518;-79
2023/01/08 13:57:57;;;;;;;13.40;12.20;;;;;;;22.32;35.86;95277.47;6156650;28;104067;-81
2023/01/08 14:01:03;;;;;;;17.60;15.90;;;;;;;22.08;36.41;95257.22;6166560;28;103149;-82
2023/01/08 14:04:07;;;;;;;25.50;23.27;;;;;;;22.13;34.94;95280.28;6162217;28;102811;-82
2023/01/08 14:07:14;;;;;;;22.93;20.80;;;;;;;22.10;35.09;95291.56;6157403;28;103565;-83
2023/01/08 14:10:20;;;;;;;26.80;24.40;;;;;;;21.84;35.38;95261.97;6163806;28;103655;-82
2023/01/08 14:13:29;;;;;;;25.30;23.10;;;;;;;21.91;34.59;95278.38;6169840;28;102608;-82